createdAt,value
2023-12-21T00:00:08.479Z,94.81
2023-12-21T00:02:35.469Z,94.32
2023-12-21T00:05:03.392Z,94.59
2023-12-21T00:07:31.138Z,94.41
2023-12-21T00:10:02.753Z,94.25
2023-12-21T00:12:29.611Z,94.38
2023-12-21T00:14:57.626Z,94.52
2023-12-21T00:17:25.449Z,94.22
2023-12-21T00:19:56.385Z,94.15
2023-12-21T00:22:24.757Z,94.22
2023-12-21T00:24:51.828Z,94.55
2023-12-21T00:27:18.901Z,94.41
2023-12-21T00:29:46.448Z,94.72
2023-12-21T00:32:13.919Z,94.37
2023-12-21T00:34:41.029Z,94.40
2023-12-21T00:37:08.706Z,94.44
2023-12-21T00:39:35.904Z,94.55
2023-12-21T00:42:02.901Z,94.47
2023-12-21T00:44:30.254Z,94.69
2023-12-21T00:46:57.625Z,95.22
2023-12-21T00:49:24.817Z,94.93
2023-12-21T00:51:51.891Z,94.41
2023-12-21T00:54:19.306Z,94.61
2023-12-21T00:56:47.876Z,94.29
2023-12-21T00:59:15.348Z,94.32
2023-12-21T01:01:42.424Z,94.64
2023-12-21T01:04:09.532Z,95.16
2023-12-21T01:06:38.202Z,95.00
2023-12-21T01:09:05.409Z,95.30
2023-12-21T01:11:32.579Z,94.72
2023-12-21T01:13:59.564Z,94.67
2023-12-21T01:16:27.092Z,94.57
2023-12-21T01:18:54.270Z,94.62
2023-12-21T01:21:21.921Z,94.70
2023-12-21T01:23:51.490Z,94.92
2023-12-21T01:26:18.676Z,94.70
2023-12-21T01:28:45.629Z,94.72
2023-12-21T01:31:12.810Z,94.97
2023-12-21T01:33:40.092Z,94.72
2023-12-21T01:36:09.395Z,94.90
2023-12-21T01:38:36.684Z,94.94
2023-12-21T01:41:03.521Z,95.23
2023-12-21T01:43:30.624Z,95.61
2023-12-21T01:45:59.329Z,95.28
2023-12-21T01:48:28.517Z,94.89
2023-12-21T01:50:55.754Z,95.01
2023-12-21T01:53:23.825Z,95.10
2023-12-21T01:55:51.052Z,95.11
2023-12-21T01:58:18.716Z,94.95
2023-12-21T02:00:46.069Z,95.23
2023-12-21T02:03:13.126Z,95.08
2023-12-21T02:05:40.128Z,94.74
2023-12-21T02:08:07.411Z,94.32
2023-12-21T02:10:34.699Z,95.52
2023-12-21T02:13:01.753Z,94.59
2023-12-21T02:15:29.127Z,93.95
2023-12-21T02:17:57.853Z,93.94
2023-12-21T02:20:25.022Z,94.01
2023-12-21T02:22:52.456Z,93.91
2023-12-21T02:25:20.618Z,93.75
2023-12-21T02:27:53.648Z,93.85
2023-12-21T02:30:21.051Z,93.44
2023-12-21T02:32:48.466Z,93.11
2023-12-21T02:35:17.075Z,92.69
2023-12-21T02:37:44.078Z,92.63
2023-12-21T02:40:11.443Z,92.57
2023-12-21T02:42:38.549Z,92.51
2023-12-21T02:45:06.022Z,92.34
2023-12-21T02:47:33.131Z,92.42
2023-12-21T02:50:00.124Z,92.24
2023-12-21T02:52:27.362Z,91.71
2023-12-21T02:54:54.403Z,91.77
2023-12-21T02:57:21.177Z,91.52
2023-12-21T03:00:01.053Z,91.54
2023-12-21T03:02:28.082Z,91.76
2023-12-21T03:04:55.108Z,91.47
2023-12-21T03:07:22.310Z,91.90
2023-12-21T03:09:49.124Z,91.11
2023-12-21T03:12:16.139Z,91.02
2023-12-21T03:14:43.045Z,90.75
2023-12-21T03:17:10.496Z,90.83
2023-12-21T03:19:37.462Z,90.52
2023-12-21T03:22:04.753Z,90.29
2023-12-21T03:24:33.033Z,90.01
2023-12-21T03:27:00.149Z,89.97
2023-12-21T03:29:27.019Z,90.01
2023-12-21T03:31:55.728Z,90.20
2023-12-21T03:34:22.926Z,89.74
2023-12-21T03:36:50.150Z,89.31
2023-12-21T03:39:17.475Z,89.14
2023-12-21T03:41:44.596Z,89.21
2023-12-21T03:44:11.781Z,89.22
2023-12-21T03:46:39.037Z,88.59
2023-12-21T03:49:06.905Z,88.13
2023-12-21T03:51:34.423Z,88.56
2023-12-21T03:54:01.174Z,88.55
2023-12-21T03:56:28.223Z,88.52
2023-12-21T03:58:54.959Z,88.40
2023-12-21T04:01:28.106Z,88.00
2023-12-21T04:04:04.436Z,87.74
2023-12-21T04:06:31.708Z,88.52
2023-12-21T04:08:59.156Z,88.04
2023-12-21T04:11:26.334Z,88.30
2023-12-21T04:13:57.843Z,88.66
2023-12-21T04:16:24.963Z,88.95
2023-12-21T04:18:58.057Z,89.09
2023-12-21T04:21:25.361Z,89.01
2023-12-21T04:23:52.182Z,89.32
2023-12-21T04:26:22.478Z,89.01
2023-12-21T04:28:54.656Z,89.00
2023-12-21T04:31:22.630Z,89.41
2023-12-21T04:33:50.676Z,89.47
2023-12-21T04:36:19.291Z,90.09
2023-12-21T04:38:56.026Z,90.24
2023-12-21T04:41:23.235Z,90.35
2023-12-21T04:43:50.408Z,90.69
2023-12-21T04:46:17.493Z,90.75
2023-12-21T04:48:50.223Z,91.13
2023-12-21T04:51:17.546Z,90.85
2023-12-21T04:53:44.835Z,91.33
2023-12-21T04:56:12.058Z,91.17
2023-12-21T04:58:53.256Z,91.35
2023-12-21T05:01:20.446Z,91.51
2023-12-21T05:03:47.798Z,91.54
2023-12-21T05:06:15.655Z,91.89
2023-12-21T05:08:55.283Z,92.17
2023-12-21T05:11:22.437Z,92.20
2023-12-21T05:13:49.240Z,91.91
2023-12-21T05:16:16.354Z,91.46
2023-12-21T05:18:48.445Z,91.79
2023-12-21T05:21:15.585Z,91.90
2023-12-21T05:23:43.055Z,92.00
2023-12-21T05:26:13.650Z,91.92
2023-12-21T05:28:49.987Z,92.20
2023-12-21T05:31:23.815Z,92.18
2023-12-21T05:33:50.876Z,92.03
2023-12-21T05:36:22.085Z,91.71
2023-12-21T05:38:56.391Z,91.72
2023-12-21T05:41:23.488Z,92.21
2023-12-21T05:43:50.702Z,92.01
2023-12-21T05:46:17.748Z,92.21
2023-12-21T05:48:54.026Z,92.98
2023-12-21T05:51:21.184Z,92.97
2023-12-21T05:53:48.354Z,93.37
2023-12-21T05:56:15.387Z,93.04
2023-12-21T05:58:51.911Z,93.12
2023-12-21T06:01:19.420Z,93.18
2023-12-21T06:03:46.259Z,93.04
2023-12-21T06:06:14.836Z,93.06
2023-12-21T06:08:52.203Z,93.13
2023-12-21T06:11:19.261Z,93.27
2023-12-21T06:13:46.444Z,93.18
2023-12-21T06:16:14.522Z,93.87
2023-12-21T06:18:45.786Z,93.89
2023-12-21T06:21:12.974Z,93.78
2023-12-21T06:23:40.331Z,93.57
2023-12-21T06:26:07.358Z,93.38
2023-12-21T06:28:35.254Z,93.10
2023-12-21T06:31:02.505Z,93.32
2023-12-21T06:33:30.205Z,93.55
2023-12-21T06:35:57.448Z,93.30
2023-12-21T06:38:24.228Z,92.95
2023-12-21T06:40:52.012Z,92.98
2023-12-21T06:43:20.287Z,93.14
2023-12-21T06:45:49.215Z,93.12
2023-12-21T06:48:16.525Z,93.65
2023-12-21T06:50:43.940Z,93.48
2023-12-21T06:53:17.137Z,93.05
2023-12-21T06:55:44.923Z,92.94
2023-12-21T06:58:12.522Z,93.00
2023-12-21T07:00:39.556Z,92.95
2023-12-21T07:03:07.975Z,92.72
2023-12-21T07:05:35.178Z,93.00
2023-12-21T07:08:02.593Z,92.83
2023-12-21T07:10:31.504Z,92.93
2023-12-21T07:12:59.442Z,92.89
2023-12-21T07:15:26.248Z,92.55
2023-12-21T07:17:54.966Z,93.13
2023-12-21T07:20:26.268Z,93.18
2023-12-21T07:22:53.592Z,93.37
2023-12-21T07:25:20.972Z,93.50
2023-12-21T07:27:48.271Z,93.19
2023-12-21T07:30:15.859Z,93.42
2023-12-21T07:32:42.964Z,93.42
2023-12-21T07:35:10.074Z,93.37
2023-12-21T07:37:37.253Z,93.44
2023-12-21T07:40:05.114Z,93.51
2023-12-21T07:42:32.369Z,93.65
2023-12-21T07:44:59.471Z,94.05
2023-12-21T07:47:26.418Z,94.23
2023-12-21T07:49:53.806Z,93.80
2023-12-21T07:52:20.958Z,94.30
2023-12-21T07:54:48.139Z,95.36
2023-12-21T07:57:16.243Z,95.24
2023-12-21T07:59:43.015Z,95.71
2023-12-21T08:02:09.762Z,96.03
2023-12-21T08:04:36.629Z,96.41
2023-12-21T08:07:03.481Z,96.77
2023-12-21T08:09:30.619Z,96.73
2023-12-21T08:11:57.403Z,97.04
2023-12-21T08:14:27.913Z,97.47
2023-12-21T08:16:55.017Z,98.03
2023-12-21T08:19:22.809Z,98.11
2023-12-21T08:21:49.644Z,97.71
2023-12-21T08:24:16.503Z,98.13
2023-12-21T08:26:43.362Z,98.64
2023-12-21T08:29:16.728Z,98.33
2023-12-21T08:31:43.957Z,98.26
2023-12-21T08:34:12.674Z,98.24
2023-12-21T08:36:39.756Z,98.36
2023-12-21T08:39:09.802Z,98.33
2023-12-21T08:41:37.719Z,98.51
2023-12-21T08:44:04.599Z,98.88
2023-12-21T08:46:31.443Z,98.52
2023-12-21T08:48:58.959Z,98.48
2023-12-21T08:51:25.781Z,98.78
2023-12-21T08:53:52.728Z,98.80
2023-12-21T08:56:19.490Z,98.63
2023-12-21T08:58:50.009Z,98.45
2023-12-21T09:01:16.940Z,98.24
2023-12-21T09:03:45.044Z,97.97
2023-12-21T09:06:12.006Z,98.14
2023-12-21T09:08:42.718Z,97.94
2023-12-21T09:11:09.567Z,97.84
2023-12-21T09:13:36.365Z,97.99
2023-12-21T09:16:03.432Z,97.98
2023-12-21T09:18:30.322Z,98.09
2023-12-21T09:20:57.838Z,97.51
2023-12-21T09:23:24.548Z,97.18
2023-12-21T09:25:53.262Z,97.45
2023-12-21T09:28:20.522Z,96.99
2023-12-21T09:30:47.670Z,96.94
2023-12-21T09:33:14.548Z,96.48
2023-12-21T09:35:41.349Z,96.52
2023-12-21T09:38:12.051Z,96.11
2023-12-21T09:40:39.380Z,95.80
2023-12-21T09:43:12.490Z,95.60
2023-12-21T09:45:42.921Z,95.71
2023-12-21T09:48:11.251Z,96.13
2023-12-21T09:50:38.507Z,96.55
2023-12-21T09:53:06.021Z,96.48
2023-12-21T09:55:33.550Z,96.84
2023-12-21T09:58:00.521Z,96.94
2023-12-21T10:00:27.478Z,96.99
2023-12-21T10:02:54.643Z,97.40
2023-12-21T10:05:21.556Z,97.43
2023-12-21T10:07:48.368Z,97.57
2023-12-21T10:10:15.844Z,97.59
2023-12-21T10:12:44.663Z,97.42
2023-12-21T10:15:11.808Z,97.20
2023-12-21T10:17:39.707Z,96.23
2023-12-21T10:20:08.490Z,95.49
2023-12-21T10:22:35.747Z,95.30
2023-12-21T10:25:02.703Z,95.58
2023-12-21T10:27:30.896Z,95.24
2023-12-21T10:30:00.099Z,94.38
2023-12-21T10:32:26.998Z,94.34
2023-12-21T10:35:00.002Z,93.93
2023-12-21T10:37:27.359Z,93.73
2023-12-21T10:39:54.674Z,93.53
2023-12-21T10:42:22.001Z,93.14
2023-12-21T10:44:49.214Z,93.21
2023-12-21T10:47:18.212Z,92.81
2023-12-21T10:49:45.778Z,92.72
2023-12-21T10:52:16.928Z,92.44
2023-12-21T10:54:44.042Z,92.84
2023-12-21T10:57:11.448Z,92.33
2023-12-21T10:59:38.556Z,90.92
2023-12-21T11:02:05.597Z,90.31
2023-12-21T11:04:33.646Z,89.23
2023-12-21T11:07:00.806Z,88.69
2023-12-21T11:09:33.246Z,87.30
2023-12-21T11:12:00.114Z,86.51
2023-12-21T11:14:27.151Z,84.93
2023-12-21T11:16:55.846Z,84.01
2023-12-21T11:19:37.078Z,83.32
2023-12-21T11:22:05.624Z,83.00
2023-12-21T11:24:32.758Z,82.90
2023-12-21T11:27:01.247Z,82.81
2023-12-21T11:29:41.095Z,81.97
2023-12-21T11:32:08.134Z,81.80
2023-12-21T11:34:41.618Z,81.36
2023-12-21T11:37:30.714Z,80.52
2023-12-21T11:40:01.282Z,80.08
2023-12-21T11:42:38.030Z,79.81
2023-12-21T11:45:05.724Z,80.01
2023-12-21T11:47:32.709Z,80.14
2023-12-21T11:50:19.607Z,79.66
2023-12-21T11:52:48.549Z,78.99
2023-12-21T11:55:26.674Z,79.84
2023-12-21T11:58:12.854Z,78.87
2023-12-21T12:00:45.163Z,79.04
2023-12-21T12:03:12.700Z,78.62
2023-12-21T12:05:39.783Z,77.65
2023-12-21T12:08:07.012Z,77.14
2023-12-21T12:10:34.438Z,76.70
2023-12-21T12:13:02.531Z,75.75
2023-12-21T12:15:29.598Z,75.41
2023-12-21T12:17:56.543Z,75.00
2023-12-21T12:20:25.792Z,73.78
2023-12-21T12:22:54.023Z,73.12
2023-12-21T12:25:21.834Z,73.36
2023-12-21T12:27:49.486Z,74.20
2023-12-21T12:30:19.659Z,74.45
2023-12-21T12:32:47.128Z,74.52
2023-12-21T12:35:14.778Z,74.70
2023-12-21T12:37:41.893Z,74.54
2023-12-21T12:40:09.352Z,73.84
2023-12-21T12:42:36.807Z,74.13
2023-12-21T12:45:05.373Z,73.85
2023-12-21T12:47:32.655Z,73.99
2023-12-21T12:50:00.542Z,73.22
2023-12-21T12:52:27.377Z,74.21
2023-12-21T12:54:54.189Z,75.17
2023-12-21T12:57:25.709Z,75.25
2023-12-21T12:59:52.563Z,74.77
2023-12-21T13:02:19.821Z,74.78
2023-12-21T13:04:46.803Z,74.72
2023-12-21T13:07:13.636Z,74.87
2023-12-21T13:09:40.513Z,75.29
2023-12-21T13:12:07.582Z,75.03
2023-12-21T13:14:34.354Z,75.72
2023-12-21T13:17:01.132Z,75.83
2023-12-21T13:19:28.396Z,76.02
2023-12-21T13:21:56.917Z,75.72
2023-12-21T13:24:23.961Z,74.91
2023-12-21T13:26:52.700Z,73.61
2023-12-21T13:29:20.019Z,74.25
2023-12-21T13:31:47.201Z,70.68
2023-12-21T13:34:14.717Z,71.18
2023-12-21T13:36:42.475Z,70.08
2023-12-21T13:39:09.307Z,68.96
2023-12-21T13:41:36.094Z,67.25
2023-12-21T13:44:03.122Z,66.40
2023-12-21T13:46:29.983Z,64.78
2023-12-21T13:48:57.042Z,62.89
2023-12-21T13:51:23.900Z,63.62
2023-12-21T13:53:51.300Z,61.97
2023-12-21T13:56:18.243Z,61.48
2023-12-21T13:58:48.630Z,61.25
2023-12-21T14:01:22.232Z,62.32
2023-12-21T14:03:54.244Z,62.17
2023-12-21T14:06:21.999Z,61.80
2023-12-21T14:08:52.814Z,63.00
2023-12-21T14:11:21.731Z,63.93
2023-12-21T14:13:48.731Z,64.07
2023-12-21T14:16:15.522Z,63.42
2023-12-21T14:18:48.227Z,64.03
2023-12-21T14:21:15.781Z,63.49
2023-12-21T14:32:42.318Z,65.04
2023-12-21T14:35:09.769Z,64.92
2023-12-21T14:37:38.346Z,66.38
2023-12-21T14:40:05.852Z,66.09
2023-12-21T14:42:33.110Z,67.27
2023-12-21T14:45:00.634Z,67.23
2023-12-21T14:47:31.642Z,67.89
2023-12-21T14:49:58.918Z,68.57
2023-12-21T14:52:26.176Z,68.91
2023-12-21T14:54:53.909Z,69.20
2023-12-21T14:57:20.967Z,69.46
2023-12-21T14:59:48.393Z,70.48
2023-12-21T15:02:15.195Z,71.00
2023-12-21T15:04:42.085Z,70.91
2023-12-21T15:07:08.987Z,70.80
2023-12-21T15:09:37.439Z,70.05
2023-12-21T15:12:04.901Z,71.06
2023-12-21T15:14:32.900Z,71.16
2023-12-21T15:17:00.808Z,71.09
2023-12-21T15:19:32.912Z,70.13
2023-12-21T15:22:01.952Z,70.69
2023-12-21T15:24:31.135Z,70.77
2023-12-21T15:26:59.094Z,70.30
2023-12-21T15:29:27.767Z,70.21
2023-12-21T15:31:54.590Z,70.79
2023-12-21T15:34:21.528Z,70.44
2023-12-21T15:36:48.454Z,70.51
2023-12-21T15:39:19.284Z,70.56
2023-12-21T15:41:46.756Z,70.63
2023-12-21T15:44:13.602Z,70.84
2023-12-21T15:46:41.096Z,71.20
2023-12-21T15:49:08.344Z,70.85
2023-12-21T15:51:35.340Z,71.26
2023-12-21T15:54:02.202Z,71.72
2023-12-21T15:56:29.078Z,70.64
2023-12-21T15:58:59.045Z,70.13
2023-12-21T16:01:26.153Z,70.25
2023-12-21T16:03:53.153Z,70.08
2023-12-21T16:06:21.133Z,69.09
2023-12-21T16:09:03.805Z,68.51
2023-12-21T16:11:30.707Z,69.42
2023-12-21T16:13:57.881Z,68.49
2023-12-21T16:16:24.726Z,67.85
2023-12-21T16:18:58.310Z,66.70
2023-12-21T16:21:25.237Z,66.17
2023-12-21T16:23:52.222Z,67.20
2023-12-21T16:26:19.285Z,66.88
2023-12-21T16:28:49.197Z,66.36
2023-12-21T16:31:16.186Z,65.99
2023-12-21T16:33:43.150Z,65.63
2023-12-21T16:36:10.723Z,65.37
2023-12-21T16:38:41.456Z,65.18
2023-12-21T16:41:08.369Z,65.39
2023-12-21T16:43:35.810Z,65.74
2023-12-21T16:46:04.981Z,64.49
2023-12-21T16:48:32.145Z,65.93
2023-12-21T16:50:59.227Z,64.88
2023-12-21T16:53:27.224Z,64.30
2023-12-21T16:55:54.303Z,64.88
2023-12-21T16:58:23.215Z,65.04
2023-12-21T17:00:50.549Z,65.46
2023-12-21T17:03:18.223Z,64.69
2023-12-21T17:05:45.148Z,65.13
2023-12-21T17:08:12.170Z,65.41
2023-12-21T17:10:39.010Z,65.18
2023-12-21T17:13:05.800Z,65.85
2023-12-21T17:15:33.900Z,65.59
2023-12-21T17:18:04.683Z,66.44
2023-12-21T17:20:32.452Z,64.91
2023-12-21T17:23:01.238Z,65.54
2023-12-21T17:25:28.618Z,65.90
2023-12-21T17:27:57.244Z,65.52
2023-12-21T17:30:26.417Z,65.31
2023-12-21T17:32:53.554Z,65.56
2023-12-21T17:35:20.691Z,65.10
2023-12-21T17:37:48.068Z,64.75
2023-12-21T17:40:16.529Z,65.53
2023-12-21T17:42:43.759Z,65.25
2023-12-21T17:45:11.357Z,64.84
2023-12-21T17:47:38.708Z,64.89
2023-12-21T17:50:06.735Z,65.75
2023-12-21T17:52:34.166Z,63.48
2023-12-21T17:55:01.165Z,64.04
2023-12-21T17:57:28.398Z,64.20
2023-12-21T17:59:58.356Z,63.83
2023-12-21T18:02:25.337Z,63.54
2023-12-21T18:04:53.051Z,62.15
2023-12-21T18:07:22.510Z,63.91
2023-12-21T18:09:51.214Z,62.92
2023-12-21T18:12:18.130Z,62.28
2023-12-21T18:14:45.055Z,61.55
2023-12-21T18:17:12.269Z,62.50
2023-12-21T18:19:39.348Z,62.86
2023-12-21T18:22:08.206Z,61.50
2023-12-21T18:24:35.953Z,61.23
2023-12-21T18:27:03.316Z,62.51
2023-12-21T18:29:30.379Z,62.22
2023-12-21T18:31:59.222Z,62.69
2023-12-21T18:34:26.166Z,62.53
2023-12-21T18:36:53.190Z,63.16
2023-12-21T18:39:20.147Z,63.00
2023-12-21T18:41:47.212Z,63.28
2023-12-21T18:44:14.412Z,63.99
2023-12-21T18:46:42.758Z,64.44
2023-12-21T18:49:13.251Z,63.88
2023-12-21T18:51:40.386Z,64.27
2023-12-21T18:54:08.003Z,65.13
2023-12-21T18:56:35.269Z,64.42
2023-12-21T18:59:04.726Z,64.92
2023-12-21T19:01:31.857Z,65.24
2023-12-21T19:04:01.262Z,65.49
2023-12-21T19:06:29.490Z,66.95
2023-12-21T19:09:03.522Z,66.44
2023-12-21T19:11:30.404Z,66.08
2023-12-21T19:13:58.330Z,66.46
2023-12-21T19:16:25.689Z,66.75
2023-12-21T19:18:58.976Z,66.39
2023-12-21T19:21:26.418Z,66.78
2023-12-21T19:23:53.307Z,66.45
2023-12-21T19:26:20.307Z,67.30
2023-12-21T19:28:56.512Z,67.36
2023-12-21T19:31:24.402Z,68.71
2023-12-21T19:33:51.357Z,67.67
2023-12-21T19:36:18.491Z,67.13
2023-12-21T19:38:55.265Z,67.38
2023-12-21T19:41:22.680Z,67.32
2023-12-21T19:43:49.666Z,66.36
2023-12-21T19:46:17.899Z,66.22
2023-12-21T19:48:57.658Z,65.50
2023-12-21T19:51:25.558Z,65.60
2023-12-21T19:53:52.487Z,66.84
2023-12-21T19:56:19.992Z,66.80
2023-12-21T19:58:53.534Z,65.90
2023-12-21T20:01:20.625Z,66.23
2023-12-21T20:03:47.517Z,67.14
2023-12-21T20:06:14.373Z,66.67
2023-12-21T20:08:48.202Z,66.36
2023-12-21T20:11:15.058Z,65.85
2023-12-21T20:13:42.155Z,66.14
2023-12-21T20:16:12.746Z,66.66
2023-12-21T20:18:42.999Z,66.40
2023-12-21T20:21:10.505Z,66.71
2023-12-21T20:23:37.491Z,67.36
2023-12-21T20:26:04.537Z,66.43
2023-12-21T20:28:31.449Z,66.11
2023-12-21T20:30:58.459Z,65.98
2023-12-21T20:33:25.516Z,65.68
2023-12-21T20:35:52.380Z,66.43
2023-12-21T20:38:19.626Z,66.60
2023-12-21T20:40:46.564Z,66.83
2023-12-21T20:43:16.550Z,65.55
2023-12-21T20:45:43.584Z,65.26
2023-12-21T20:48:10.514Z,65.09
2023-12-21T20:50:37.599Z,65.66
2023-12-21T20:53:05.055Z,65.92
2023-12-21T20:55:32.387Z,65.72
2023-12-21T20:57:59.875Z,65.79
2023-12-21T21:00:26.660Z,66.68
2023-12-21T21:02:55.342Z,66.77
2023-12-21T21:05:23.111Z,66.46
2023-12-21T21:07:50.530Z,67.00
2023-12-21T21:10:17.964Z,67.51
2023-12-21T21:12:44.789Z,67.03
2023-12-21T21:15:11.878Z,67.41
2023-12-21T21:17:39.145Z,67.79
2023-12-21T21:20:06.470Z,68.04
2023-12-21T21:22:33.549Z,67.56
2023-12-21T21:25:00.637Z,67.67
2023-12-21T21:27:27.754Z,68.34
2023-12-21T21:29:54.639Z,68.29
2023-12-21T21:32:23.306Z,67.92
2023-12-21T21:34:50.316Z,67.59
2023-12-21T21:37:17.207Z,67.77
2023-12-21T21:39:45.182Z,67.72
2023-12-21T21:42:12.316Z,68.00
2023-12-21T21:44:39.313Z,67.06
2023-12-21T21:47:06.177Z,67.50
2023-12-21T21:49:34.149Z,68.10
2023-12-21T21:52:01.061Z,68.19
2023-12-21T21:54:28.481Z,66.88
2023-12-21T21:56:55.250Z,67.12
2023-12-21T21:59:22.210Z,66.84
2023-12-21T22:01:49.350Z,66.93
2023-12-21T22:04:20.612Z,66.77
2023-12-21T22:06:47.868Z,67.29
2023-12-21T22:09:16.765Z,66.98
2023-12-21T22:11:43.842Z,67.51
2023-12-21T22:14:11.969Z,67.45
2023-12-21T22:16:39.140Z,67.60
2023-12-21T22:19:09.243Z,67.17
2023-12-21T22:21:36.247Z,67.20
2023-12-21T22:24:03.684Z,67.54
2023-12-21T22:26:31.256Z,67.83
2023-12-21T22:29:01.176Z,67.82
2023-12-21T22:31:28.230Z,67.92
2023-12-21T22:33:56.654Z,68.24
2023-12-21T22:36:23.676Z,68.53
2023-12-21T22:38:51.084Z,68.65
2023-12-21T22:41:18.138Z,69.58
2023-12-21T22:43:45.039Z,69.19
2023-12-21T22:46:12.265Z,69.52
2023-12-21T22:48:47.111Z,69.32
2023-12-21T22:51:14.046Z,69.38
2023-12-21T22:53:40.981Z,69.86
2023-12-21T22:56:07.838Z,69.22
2023-12-21T22:58:34.837Z,69.22
2023-12-21T23:01:01.683Z,69.02
2023-12-21T23:03:28.819Z,68.62
2023-12-21T23:05:56.037Z,68.23
2023-12-21T23:08:22.925Z,68.66
2023-12-21T23:10:50.058Z,68.00
2023-12-21T23:13:20.073Z,68.49
2023-12-21T23:15:47.055Z,68.14
2023-12-21T23:18:14.251Z,67.82
2023-12-21T23:20:41.279Z,68.02
2023-12-21T23:23:08.236Z,67.06
2023-12-21T23:25:35.177Z,67.12
2023-12-21T23:28:02.366Z,66.47
2023-12-21T23:30:29.304Z,67.02
2023-12-21T23:32:56.231Z,67.14
2023-12-21T23:35:24.006Z,66.40
2023-12-21T23:37:51.693Z,66.39
2023-12-21T23:40:19.053Z,65.98
2023-12-21T23:42:46.359Z,66.23
2023-12-21T23:45:15.145Z,66.36
2023-12-21T23:47:42.317Z,66.69
2023-12-21T23:50:09.781Z,66.28
2023-12-21T23:52:37.218Z,66.34
2023-12-21T23:55:05.025Z,66.13
2023-12-21T23:57:31.867Z,66.45
2023-12-21T23:59:58.648Z,66.50
